Ashuelot River Near Gilsum, Nh

Ashuelot River near Gilsum, NH
 Total Drainage Area: 71 sq. miles 
 Drainage Area Controlled by Corps Dams: 0 sq. miles (0%) 
 Warning Flow/Stage: ?? cfs / ?? feet 
 Flood Flow/Stage: ?? cfs / ?? feet 
Date Time
(Eastern)
Stage
(ft)
Flow
(cfs)
CSM
(cfs / sq. mi.)
Water Temp.
(F)
Jun-25 01:30 am 4.00 245 3.5 67.1
Jun-25 12:30 am 3.96 237 3.3 67.4
Jun-24 11:30 pm 3.96 237 3.3 67.6
Jun-24 10:30 pm 4.01 247 3.5 67.8
Jun-24 09:30 pm 4.00 245 3.5 68.0
Jun-24 08:30 pm 4.03 251 3.5 68.2
Jun-24 07:30 pm 4.09 264 3.7 68.5
Jun-24 06:30 pm 4.09 264 3.7 68.8
Jun-24 05:30 pm 4.08 262 3.7 69.0
Jun-24 04:30 pm 4.11 269 3.8 69.0
Jun-24 03:30 pm 4.10 266 3.8 68.7
Jun-24 02:30 pm 4.13 273 3.8 68.7
Jun-24 01:30 pm 4.15 278 3.9 68.3
Jun-24 12:30 pm 4.14 275 3.9 68.3
Jun-24 11:30 am 4.16 280 3.9 68.6
Jun-24 10:30 am 4.14 275 3.9 68.3
Jun-24 09:30 am 4.15 278 3.9 67.9
Jun-24 08:30 am 4.15 278 3.9 67.6
Jun-24 07:30 am 4.10 266 3.8 67.6
Jun-24 06:30 am 4.08 262 3.7 67.7
Jun-24 05:30 am 4.08 262 3.7 67.9
Jun-24 04:30 am 4.02 249 3.5 68.1
Jun-24 03:30 am 4.00 245 3.5 68.3
Jun-24 02:30 am 3.94 233 3.3 68.4
Jun-24 01:30 am 3.91 227 3.2 68.4
Report Generated June 25, 2024 05:57 am